sensor_id;sensor_type;location;lat;lon;timestamp;temperature;humidity
23715;DHT22;12036;50.858;4.472;2024-02-23T00:00:01;6.30;99.90
23715;DHT22;12036;50.858;4.472;2024-02-23T00:02:31;6.20;99.90
23715;DHT22;12036;50.858;4.472;2024-02-23T00:04:56;6.20;99.90
23715;DHT22;12036;50.858;4.472;2024-02-23T00:07:22;6.10;99.90
23715;DHT22;12036;50.858;4.472;2024-02-23T00:09:48;6.20;99.90
23715;DHT22;12036;50.858;4.472;2024-02-23T00:12:13;6.10;99.90
23715;DHT22;12036;50.858;4.472;2024-02-23T00:14:39;6.10;99.90
23715;DHT22;12036;50.858;4.472;2024-02-23T00:17:05;6.20;99.90
23715;DHT22;12036;50.858;4.472;2024-02-23T00:19:31;6.20;99.90
23715;DHT22;12036;50.858;4.472;2024-02-23T00:21:57;6.20;99.90
23715;DHT22;12036;50.858;4.472;2024-02-23T00:24:27;6.30;99.90
23715;DHT22;12036;50.858;4.472;2024-02-23T00:26:53;6.20;99.90
23715;DHT22;12036;50.858;4.472;2024-02-23T00:29:19;6.20;99.90
23715;DHT22;12036;50.858;4.472;2024-02-23T00:31:45;6.20;99.90
23715;DHT22;12036;50.858;4.472;2024-02-23T00:34:11;6.30;99.90
23715;DHT22;12036;50.858;4.472;2024-02-23T00:36:42;6.30;99.90
23715;DHT22;12036;50.858;4.472;2024-02-23T00:39:07;6.10;99.90
23715;DHT22;12036;50.858;4.472;2024-02-23T00:41:34;6.00;99.90
23715;DHT22;12036;50.858;4.472;2024-02-23T00:43:59;6.00;99.90
23715;DHT22;12036;50.858;4.472;2024-02-23T00:46:25;6.00;99.90
23715;DHT22;12036;50.858;4.472;2024-02-23T00:48:51;6.20;99.90
23715;DHT22;12036;50.858;4.472;2024-02-23T00:51:16;6.20;99.90
23715;DHT22;12036;50.858;4.472;2024-02-23T00:53:42;6.10;99.90
23715;DHT22;12036;50.858;4.472;2024-02-23T00:56:07;5.90;99.90
23715;DHT22;12036;50.858;4.472;2024-02-23T00:58:33;5.80;99.90
23715;DHT22;12036;50.858;4.472;2024-02-23T01:00:59;5.80;99.90
23715;DHT22;12036;50.858;4.472;2024-02-23T01:03:25;5.80;99.90
23715;DHT22;12036;50.858;4.472;2024-02-23T01:05:50;5.80;99.90
23715;DHT22;12036;50.858;4.472;2024-02-23T01:08:16;5.60;99.90
23715;DHT22;12036;50.858;4.472;2024-02-23T01:10:42;5.60;99.90
23715;DHT22;12036;50.858;4.472;2024-02-23T01:13:08;5.60;99.90
23715;DHT22;12036;50.858;4.472;2024-02-23T01:15:33;5.60;99.90
23715;DHT22;12036;50.858;4.472;2024-02-23T01:17:59;5.50;99.90
23715;DHT22;12036;50.858;4.472;2024-02-23T01:20:25;5.50;99.90
23715;DHT22;12036;50.858;4.472;2024-02-23T01:22:51;5.40;99.90
23715;DHT22;12036;50.858;4.472;2024-02-23T01:25:16;5.40;99.90
23715;DHT22;12036;50.858;4.472;2024-02-23T01:27:42;5.40;99.90
23715;DHT22;12036;50.858;4.472;2024-02-23T01:30:10;5.40;99.90
23715;DHT22;12036;50.858;4.472;2024-02-23T01:32:36;5.40;99.90
23715;DHT22;12036;50.858;4.472;2024-02-23T01:35:07;5.40;99.90
23715;DHT22;12036;50.858;4.472;2024-02-23T01:37:33;5.30;99.90
23715;DHT22;12036;50.858;4.472;2024-02-23T01:40:00;5.30;99.90
23715;DHT22;12036;50.858;4.472;2024-02-23T01:42:26;5.40;99.90
23715;DHT22;12036;50.858;4.472;2024-02-23T01:44:52;5.40;99.90
23715;DHT22;12036;50.858;4.472;2024-02-23T01:47:18;5.40;99.90
23715;DHT22;12036;50.858;4.472;2024-02-23T01:49:45;5.40;99.90
23715;DHT22;12036;50.858;4.472;2024-02-23T01:52:12;5.50;99.90
23715;DHT22;12036;50.858;4.472;2024-02-23T01:54:38;5.50;99.90
23715;DHT22;12036;50.858;4.472;2024-02-23T01:57:04;5.50;99.90
23715;DHT22;12036;50.858;4.472;2024-02-23T01:59:30;5.50;99.90
23715;DHT22;12036;50.858;4.472;2024-02-23T02:01:56;5.50;99.90
23715;DHT22;12036;50.858;4.472;2024-02-23T02:04:21;5.60;99.90
23715;DHT22;12036;50.858;4.472;2024-02-23T02:06:48;5.70;99.90
23715;DHT22;12036;50.858;4.472;2024-02-23T02:09:14;5.80;99.90
23715;DHT22;12036;50.858;4.472;2024-02-23T02:11:46;5.90;99.90
23715;DHT22;12036;50.858;4.472;2024-02-23T02:14:12;6.00;99.90
23715;DHT22;12036;50.858;4.472;2024-02-23T02:16:39;5.90;99.90
23715;DHT22;12036;50.858;4.472;2024-02-23T02:19:04;6.00;99.90
23715;DHT22;12036;50.858;4.472;2024-02-23T02:21:31;6.10;99.90
23715;DHT22;12036;50.858;4.472;2024-02-23T02:23:57;6.10;99.90
23715;DHT22;12036;50.858;4.472;2024-02-23T02:26:23;6.10;99.90
23715;DHT22;12036;50.858;4.472;2024-02-23T02:28:48;6.20;99.90
23715;DHT22;12036;50.858;4.472;2024-02-23T02:31:14;6.40;99.90
23715;DHT22;12036;50.858;4.472;2024-02-23T02:33:40;6.40;99.90
23715;DHT22;12036;50.858;4.472;2024-02-23T02:36:06;6.40;99.90
23715;DHT22;12036;50.858;4.472;2024-02-23T02:38:32;6.40;99.90
23715;DHT22;12036;50.858;4.472;2024-02-23T02:41:01;6.30;99.90
23715;DHT22;12036;50.858;4.472;2024-02-23T02:43:27;6.30;99.90
23715;DHT22;12036;50.858;4.472;2024-02-23T02:45:52;6.50;99.90
23715;DHT22;12036;50.858;4.472;2024-02-23T02:48:18;6.60;99.90
23715;DHT22;12036;50.858;4.472;2024-02-23T02:50:44;6.50;99.90
23715;DHT22;12036;50.858;4.472;2024-02-23T02:53:10;6.40;99.90
23715;DHT22;12036;50.858;4.472;2024-02-23T02:55:36;6.50;99.90
23715;DHT22;12036;50.858;4.472;2024-02-23T02:58:02;6.40;99.90
23715;DHT22;12036;50.858;4.472;2024-02-23T03:00:28;6.40;99.90
23715;DHT22;12036;50.858;4.472;2024-02-23T03:02:54;6.40;99.90
23715;DHT22;12036;50.858;4.472;2024-02-23T03:05:19;6.50;99.90
23715;DHT22;12036;50.858;4.472;2024-02-23T03:07:45;6.40;99.90
23715;DHT22;12036;50.858;4.472;2024-02-23T03:10:11;6.40;99.90
23715;DHT22;12036;50.858;4.472;2024-02-23T03:12:36;6.40;99.90
23715;DHT22;12036;50.858;4.472;2024-02-23T03:15:02;6.40;99.90
23715;DHT22;12036;50.858;4.472;2024-02-23T03:17:28;6.30;99.90
23715;DHT22;12036;50.858;4.472;2024-02-23T03:19:54;6.30;99.90
23715;DHT22;12036;50.858;4.472;2024-02-23T03:22:20;6.40;99.90
23715;DHT22;12036;50.858;4.472;2024-02-23T03:24:46;6.40;99.90
23715;DHT22;12036;50.858;4.472;2024-02-23T03:27:11;6.40;99.90
23715;DHT22;12036;50.858;4.472;2024-02-23T03:29:38;6.30;99.90
23715;DHT22;12036;50.858;4.472;2024-02-23T03:32:05;6.40;99.90
23715;DHT22;12036;50.858;4.472;2024-02-23T03:34:31;6.40;99.90
23715;DHT22;12036;50.858;4.472;2024-02-23T03:36:56;6.30;99.90
23715;DHT22;12036;50.858;4.472;2024-02-23T03:39:23;6.20;99.90
23715;DHT22;12036;50.858;4.472;2024-02-23T03:41:50;6.10;99.90
23715;DHT22;12036;50.858;4.472;2024-02-23T03:44:16;6.10;99.90
23715;DHT22;12036;50.858;4.472;2024-02-23T03:46:41;6.10;99.90
23715;DHT22;12036;50.858;4.472;2024-02-23T03:49:07;6.10;99.90
23715;DHT22;12036;50.858;4.472;2024-02-23T03:51:33;6.10;99.90
23715;DHT22;12036;50.858;4.472;2024-02-23T03:54:00;6.20;99.90
23715;DHT22;12036;50.858;4.472;2024-02-23T03:56:26;6.20;99.90
23715;DHT22;12036;50.858;4.472;2024-02-23T03:58:51;6.20;99.90
23715;DHT22;12036;50.858;4.472;2024-02-23T04:01:17;6.30;99.90
23715;DHT22;12036;50.858;4.472;2024-02-23T04:03:42;6.40;99.90
23715;DHT22;12036;50.858;4.472;2024-02-23T04:06:08;6.30;99.90
23715;DHT22;12036;50.858;4.472;2024-02-23T04:08:34;6.30;99.90
23715;DHT22;12036;50.858;4.472;2024-02-23T04:10:59;6.30;99.90
23715;DHT22;12036;50.858;4.472;2024-02-23T04:13:25;6.30;99.90
23715;DHT22;12036;50.858;4.472;2024-02-23T04:15:50;6.30;99.90
23715;DHT22;12036;50.858;4.472;2024-02-23T04:18:16;6.40;99.90
23715;DHT22;12036;50.858;4.472;2024-02-23T04:20:41;6.50;99.90
23715;DHT22;12036;50.858;4.472;2024-02-23T04:23:07;6.50;99.90
23715;DHT22;12036;50.858;4.472;2024-02-23T04:25:33;6.50;99.90
23715;DHT22;12036;50.858;4.472;2024-02-23T04:27:58;6.60;99.90
23715;DHT22;12036;50.858;4.472;2024-02-23T04:30:24;6.50;99.90
23715;DHT22;12036;50.858;4.472;2024-02-23T04:32:50;6.50;99.90
23715;DHT22;12036;50.858;4.472;2024-02-23T04:35:16;6.50;99.90
23715;DHT22;12036;50.858;4.472;2024-02-23T04:37:44;6.50;99.90
23715;DHT22;12036;50.858;4.472;2024-02-23T04:40:11;6.40;99.90
23715;DHT22;12036;50.858;4.472;2024-02-23T04:42:37;6.40;99.90
23715;DHT22;12036;50.858;4.472;2024-02-23T04:45:03;6.30;99.90
23715;DHT22;12036;50.858;4.472;2024-02-23T04:47:29;6.30;99.90
23715;DHT22;12036;50.858;4.472;2024-02-23T04:49:54;6.30;99.90
23715;DHT22;12036;50.858;4.472;2024-02-23T04:52:20;6.30;99.90
23715;DHT22;12036;50.858;4.472;2024-02-23T04:54:45;6.30;99.90
23715;DHT22;12036;50.858;4.472;2024-02-23T04:57:11;6.20;99.90
23715;DHT22;12036;50.858;4.472;2024-02-23T04:59:36;6.30;99.90
23715;DHT22;12036;50.858;4.472;2024-02-23T05:02:02;6.30;99.90
23715;DHT22;12036;50.858;4.472;2024-02-23T05:04:28;6.40;99.90
23715;DHT22;12036;50.858;4.472;2024-02-23T05:06:53;6.40;99.90
23715;DHT22;12036;50.858;4.472;2024-02-23T05:09:19;6.30;99.90
23715;DHT22;12036;50.858;4.472;2024-02-23T05:11:46;6.30;99.90
23715;DHT22;12036;50.858;4.472;2024-02-23T05:14:13;6.40;99.90
23715;DHT22;12036;50.858;4.472;2024-02-23T05:16:39;6.40;99.90
23715;DHT22;12036;50.858;4.472;2024-02-23T05:19:05;6.30;99.90
23715;DHT22;12036;50.858;4.472;2024-02-23T05:21:30;6.30;99.90
23715;DHT22;12036;50.858;4.472;2024-02-23T05:23:56;6.40;99.90
23715;DHT22;12036;50.858;4.472;2024-02-23T05:26:22;6.40;99.90
23715;DHT22;12036;50.858;4.472;2024-02-23T05:28:48;6.30;99.90
23715;DHT22;12036;50.858;4.472;2024-02-23T05:31:14;6.30;99.90
23715;DHT22;12036;50.858;4.472;2024-02-23T05:33:40;6.40;99.90
23715;DHT22;12036;50.858;4.472;2024-02-23T05:36:06;6.40;99.90
23715;DHT22;12036;50.858;4.472;2024-02-23T05:38:32;6.50;99.90
23715;DHT22;12036;50.858;4.472;2024-02-23T05:40:58;6.40;99.90
23715;DHT22;12036;50.858;4.472;2024-02-23T05:43:23;6.30;99.90
23715;DHT22;12036;50.858;4.472;2024-02-23T05:45:49;6.30;99.90
23715;DHT22;12036;50.858;4.472;2024-02-23T05:48:15;6.30;99.90
23715;DHT22;12036;50.858;4.472;2024-02-23T05:50:40;6.30;99.90
23715;DHT22;12036;50.858;4.472;2024-02-23T05:53:06;6.40;99.90
23715;DHT22;12036;50.858;4.472;2024-02-23T05:55:31;6.40;99.90
23715;DHT22;12036;50.858;4.472;2024-02-23T05:57:57;6.30;99.90
23715;DHT22;12036;50.858;4.472;2024-02-23T06:00:22;6.30;99.90
23715;DHT22;12036;50.858;4.472;2024-02-23T06:02:48;6.20;99.90
23715;DHT22;12036;50.858;4.472;2024-02-23T06:05:14;6.20;99.90
23715;DHT22;12036;50.858;4.472;2024-02-23T06:07:40;6.30;99.90
23715;DHT22;12036;50.858;4.472;2024-02-23T06:10:07;6.40;99.90
23715;DHT22;12036;50.858;4.472;2024-02-23T06:12:32;6.40;99.90
23715;DHT22;12036;50.858;4.472;2024-02-23T06:14:58;6.30;99.90
23715;DHT22;12036;50.858;4.472;2024-02-23T06:17:24;6.30;99.90
23715;DHT22;12036;50.858;4.472;2024-02-23T06:19:50;6.30;99.90
23715;DHT22;12036;50.858;4.472;2024-02-23T06:22:18;6.20;99.90
23715;DHT22;12036;50.858;4.472;2024-02-23T06:24:46;6.30;99.90
23715;DHT22;12036;50.858;4.472;2024-02-23T06:27:12;6.20;99.90
23715;DHT22;12036;50.858;4.472;2024-02-23T06:29:38;6.30;99.90
23715;DHT22;12036;50.858;4.472;2024-02-23T06:32:04;6.30;99.90
23715;DHT22;12036;50.858;4.472;2024-02-23T06:34:29;6.40;99.90
23715;DHT22;12036;50.858;4.472;2024-02-23T06:36:55;6.40;99.90
23715;DHT22;12036;50.858;4.472;2024-02-23T06:39:21;6.50;99.90
23715;DHT22;12036;50.858;4.472;2024-02-23T06:41:46;6.60;99.90
23715;DHT22;12036;50.858;4.472;2024-02-23T06:44:12;6.50;99.90
23715;DHT22;12036;50.858;4.472;2024-02-23T06:46:38;6.50;99.90
23715;DHT22;12036;50.858;4.472;2024-02-23T06:49:03;6.60;99.90
23715;DHT22;12036;50.858;4.472;2024-02-23T06:51:31;6.60;99.90
23715;DHT22;12036;50.858;4.472;2024-02-23T06:53:57;6.70;99.90
23715;DHT22;12036;50.858;4.472;2024-02-23T06:56:22;6.70;99.90
23715;DHT22;12036;50.858;4.472;2024-02-23T06:58:48;6.70;99.90
23715;DHT22;12036;50.858;4.472;2024-02-23T07:01:13;6.70;99.90
23715;DHT22;12036;50.858;4.472;2024-02-23T07:03:39;6.60;99.90
23715;DHT22;12036;50.858;4.472;2024-02-23T07:06:08;6.60;99.90
23715;DHT22;12036;50.858;4.472;2024-02-23T07:08:35;6.70;99.90
23715;DHT22;12036;50.858;4.472;2024-02-23T07:11:01;6.80;99.90
23715;DHT22;12036;50.858;4.472;2024-02-23T07:13:26;6.70;99.90
23715;DHT22;12036;50.858;4.472;2024-02-23T07:15:52;6.80;99.90
23715;DHT22;12036;50.858;4.472;2024-02-23T07:18:18;6.80;99.90
23715;DHT22;12036;50.858;4.472;2024-02-23T07:20:43;6.80;99.90
23715;DHT22;12036;50.858;4.472;2024-02-23T07:23:10;6.80;99.90
23715;DHT22;12036;50.858;4.472;2024-02-23T07:25:36;6.70;99.90
23715;DHT22;12036;50.858;4.472;2024-02-23T07:28:01;6.70;99.90
23715;DHT22;12036;50.858;4.472;2024-02-23T07:30:27;6.80;99.90
23715;DHT22;12036;50.858;4.472;2024-02-23T07:32:53;6.80;99.90
23715;DHT22;12036;50.858;4.472;2024-02-23T07:35:19;6.80;99.90
23715;DHT22;12036;50.858;4.472;2024-02-23T07:37:45;6.90;99.90
23715;DHT22;12036;50.858;4.472;2024-02-23T07:40:13;6.90;99.90
23715;DHT22;12036;50.858;4.472;2024-02-23T07:42:39;6.90;99.90
23715;DHT22;12036;50.858;4.472;2024-02-23T07:45:06;6.90;99.90
23715;DHT22;12036;50.858;4.472;2024-02-23T07:47:32;7.00;99.90
23715;DHT22;12036;50.858;4.472;2024-02-23T07:49:58;7.00;99.90
23715;DHT22;12036;50.858;4.472;2024-02-23T07:52:24;7.10;99.90
23715;DHT22;12036;50.858;4.472;2024-02-23T07:54:52;7.10;99.90
23715;DHT22;12036;50.858;4.472;2024-02-23T07:57:21;7.20;99.90
23715;DHT22;12036;50.858;4.472;2024-02-23T07:59:47;7.40;99.90
23715;DHT22;12036;50.858;4.472;2024-02-23T08:02:14;7.50;99.90
23715;DHT22;12036;50.858;4.472;2024-02-23T08:04:40;7.60;99.90
23715;DHT22;12036;50.858;4.472;2024-02-23T08:07:05;7.60;99.90
23715;DHT22;12036;50.858;4.472;2024-02-23T08:09:31;7.60;99.90
23715;DHT22;12036;50.858;4.472;2024-02-23T08:11:57;7.70;99.90
23715;DHT22;12036;50.858;4.472;2024-02-23T08:14:23;7.60;99.90
23715;DHT22;12036;50.858;4.472;2024-02-23T08:16:49;7.60;99.90
23715;DHT22;12036;50.858;4.472;2024-02-23T08:19:15;7.60;99.90
23715;DHT22;12036;50.858;4.472;2024-02-23T08:21:41;7.40;99.90
23715;DHT22;12036;50.858;4.472;2024-02-23T08:24:07;7.20;99.90
23715;DHT22;12036;50.858;4.472;2024-02-23T08:26:33;7.00;99.90
23715;DHT22;12036;50.858;4.472;2024-02-23T08:28:59;7.10;99.90
23715;DHT22;12036;50.858;4.472;2024-02-23T08:31:25;7.10;99.90
23715;DHT22;12036;50.858;4.472;2024-02-23T08:33:50;6.80;99.90
23715;DHT22;12036;50.858;4.472;2024-02-23T08:36:16;6.70;99.90
23715;DHT22;12036;50.858;4.472;2024-02-23T08:38:41;6.50;99.90
23715;DHT22;12036;50.858;4.472;2024-02-23T08:41:07;6.40;99.90
23715;DHT22;12036;50.858;4.472;2024-02-23T08:43:34;6.40;99.90
23715;DHT22;12036;50.858;4.472;2024-02-23T08:45:59;6.40;99.90
23715;DHT22;12036;50.858;4.472;2024-02-23T08:48:25;6.30;99.90
23715;DHT22;12036;50.858;4.472;2024-02-23T08:50:51;6.50;99.90
23715;DHT22;12036;50.858;4.472;2024-02-23T08:53:16;6.50;99.90
23715;DHT22;12036;50.858;4.472;2024-02-23T08:55:42;6.60;99.90
23715;DHT22;12036;50.858;4.472;2024-02-23T08:58:08;6.60;99.90
23715;DHT22;12036;50.858;4.472;2024-02-23T09:00:34;6.50;99.90
23715;DHT22;12036;50.858;4.472;2024-02-23T09:03:02;6.40;99.90
23715;DHT22;12036;50.858;4.472;2024-02-23T09:05:28;6.20;99.90
23715;DHT22;12036;50.858;4.472;2024-02-23T09:07:54;6.20;99.90
23715;DHT22;12036;50.858;4.472;2024-02-23T09:10:19;6.10;99.90
23715;DHT22;12036;50.858;4.472;2024-02-23T09:12:45;6.20;99.90
23715;DHT22;12036;50.858;4.472;2024-02-23T09:15:11;6.20;99.90
23715;DHT22;12036;50.858;4.472;2024-02-23T09:17:36;6.30;99.90
23715;DHT22;12036;50.858;4.472;2024-02-23T09:20:02;6.30;99.90
23715;DHT22;12036;50.858;4.472;2024-02-23T09:22:28;6.30;99.90
23715;DHT22;12036;50.858;4.472;2024-02-23T09:24:54;6.40;99.90
23715;DHT22;12036;50.858;4.472;2024-02-23T09:27:21;6.50;99.90
23715;DHT22;12036;50.858;4.472;2024-02-23T09:29:47;6.40;99.90
23715;DHT22;12036;50.858;4.472;2024-02-23T09:32:13;6.40;99.90
23715;DHT22;12036;50.858;4.472;2024-02-23T09:34:38;6.40;99.90
23715;DHT22;12036;50.858;4.472;2024-02-23T09:37:04;6.50;99.90
23715;DHT22;12036;50.858;4.472;2024-02-23T09:39:29;6.60;99.90
23715;DHT22;12036;50.858;4.472;2024-02-23T09:41:56;6.90;99.90
23715;DHT22;12036;50.858;4.472;2024-02-23T09:44:32;7.10;99.90
23715;DHT22;12036;50.858;4.472;2024-02-23T09:47:00;7.10;99.90
23715;DHT22;12036;50.858;4.472;2024-02-23T09:49:42;7.30;99.90
23715;DHT22;12036;50.858;4.472;2024-02-23T09:52:10;7.30;99.90
23715;DHT22;12036;50.858;4.472;2024-02-23T09:54:39;7.50;99.90
23715;DHT22;12036;50.858;4.472;2024-02-23T09:57:07;7.70;99.90
23715;DHT22;12036;50.858;4.472;2024-02-23T09:59:35;7.90;99.90
23715;DHT22;12036;50.858;4.472;2024-02-23T10:02:08;7.90;99.90
23715;DHT22;12036;50.858;4.472;2024-02-23T10:04:41;7.80;99.90
23715;DHT22;12036;50.858;4.472;2024-02-23T10:07:08;8.00;99.90
23715;DHT22;12036;50.858;4.472;2024-02-23T10:09:34;8.00;99.90
23715;DHT22;12036;50.858;4.472;2024-02-23T10:12:01;8.10;99.90
23715;DHT22;12036;50.858;4.472;2024-02-23T10:14:27;8.10;99.90
23715;DHT22;12036;50.858;4.472;2024-02-23T10:16:53;8.00;99.90
23715;DHT22;12036;50.858;4.472;2024-02-23T10:19:21;7.90;99.90
23715;DHT22;12036;50.858;4.472;2024-02-23T10:21:46;7.90;99.90
23715;DHT22;12036;50.858;4.472;2024-02-23T10:24:15;8.00;99.90
23715;DHT22;12036;50.858;4.472;2024-02-23T10:26:41;8.20;99.90
23715;DHT22;12036;50.858;4.472;2024-02-23T10:29:07;8.50;99.90
23715;DHT22;12036;50.858;4.472;2024-02-23T10:31:35;8.70;99.90
23715;DHT22;12036;50.858;4.472;2024-02-23T10:34:09;8.90;99.90
23715;DHT22;12036;50.858;4.472;2024-02-23T10:36:42;9.20;99.90
23715;DHT22;12036;50.858;4.472;2024-02-23T10:39:08;9.10;99.90
23715;DHT22;12036;50.858;4.472;2024-02-23T10:41:39;9.20;99.90
23715;DHT22;12036;50.858;4.472;2024-02-23T10:44:09;9.20;99.90
23715;DHT22;12036;50.858;4.472;2024-02-23T10:46:35;9.10;99.90
23715;DHT22;12036;50.858;4.472;2024-02-23T10:49:01;9.10;99.90
23715;DHT22;12036;50.858;4.472;2024-02-23T10:51:28;9.20;99.90
23715;DHT22;12036;50.858;4.472;2024-02-23T10:53:55;9.30;99.90
23715;DHT22;12036;50.858;4.472;2024-02-23T10:56:21;9.20;99.90
23715;DHT22;12036;50.858;4.472;2024-02-23T10:58:48;9.10;99.90
23715;DHT22;12036;50.858;4.472;2024-02-23T11:01:14;8.90;99.90
23715;DHT22;12036;50.858;4.472;2024-02-23T11:03:42;9.30;99.90
23715;DHT22;12036;50.858;4.472;2024-02-23T11:06:09;9.20;99.90
23715;DHT22;12036;50.858;4.472;2024-02-23T11:08:36;9.20;99.90
23715;DHT22;12036;50.858;4.472;2024-02-23T11:11:08;9.20;99.90
23715;DHT22;12036;50.858;4.472;2024-02-23T11:13:35;9.20;99.90
23715;DHT22;12036;50.858;4.472;2024-02-23T11:16:05;9.40;99.90
23715;DHT22;12036;50.858;4.472;2024-02-23T11:18:32;9.40;99.90
23715;DHT22;12036;50.858;4.472;2024-02-23T11:21:00;9.40;99.90
23715;DHT22;12036;50.858;4.472;2024-02-23T11:23:38;9.50;99.90
23715;DHT22;12036;50.858;4.472;2024-02-23T11:26:04;9.50;99.90
23715;DHT22;12036;50.858;4.472;2024-02-23T11:28:31;9.30;99.90
23715;DHT22;12036;50.858;4.472;2024-02-23T11:30:57;9.10;99.90
23715;DHT22;12036;50.858;4.472;2024-02-23T11:33:37;9.00;99.90
23715;DHT22;12036;50.858;4.472;2024-02-23T11:36:09;9.00;99.90
23715;DHT22;12036;50.858;4.472;2024-02-23T11:38:35;9.00;99.90
23715;DHT22;12036;50.858;4.472;2024-02-23T11:41:02;8.90;99.90
23715;DHT22;12036;50.858;4.472;2024-02-23T11:43:28;9.00;99.90
23715;DHT22;12036;50.858;4.472;2024-02-23T11:45:54;9.20;99.90
23715;DHT22;12036;50.858;4.472;2024-02-23T11:48:20;9.30;99.90
23715;DHT22;12036;50.858;4.472;2024-02-23T11:50:48;9.30;99.90
23715;DHT22;12036;50.858;4.472;2024-02-23T11:53:14;9.60;99.90
23715;DHT22;12036;50.858;4.472;2024-02-23T11:55:40;9.90;99.90
23715;DHT22;12036;50.858;4.472;2024-02-23T11:58:06;9.80;99.90
23715;DHT22;12036;50.858;4.472;2024-02-23T12:00:32;9.50;99.90
23715;DHT22;12036;50.858;4.472;2024-02-23T12:02:58;9.50;99.90
23715;DHT22;12036;50.858;4.472;2024-02-23T12:05:24;9.60;99.90
23715;DHT22;12036;50.858;4.472;2024-02-23T12:07:50;9.50;99.90
23715;DHT22;12036;50.858;4.472;2024-02-23T12:10:16;9.60;99.90
23715;DHT22;12036;50.858;4.472;2024-02-23T12:12:42;9.70;99.90
23715;DHT22;12036;50.858;4.472;2024-02-23T12:15:10;9.90;99.90
23715;DHT22;12036;50.858;4.472;2024-02-23T12:17:36;9.80;99.90
23715;DHT22;12036;50.858;4.472;2024-02-23T12:20:03;9.80;99.90
23715;DHT22;12036;50.858;4.472;2024-02-23T12:22:29;9.60;99.90
23715;DHT22;12036;50.858;4.472;2024-02-23T12:24:58;9.70;99.90
23715;DHT22;12036;50.858;4.472;2024-02-23T12:27:25;9.80;99.90
23715;DHT22;12036;50.858;4.472;2024-02-23T12:29:55;9.80;99.90
23715;DHT22;12036;50.858;4.472;2024-02-23T12:32:21;9.80;99.90
23715;DHT22;12036;50.858;4.472;2024-02-23T12:34:47;9.80;99.90
23715;DHT22;12036;50.858;4.472;2024-02-23T12:37:19;10.00;99.90
23715;DHT22;12036;50.858;4.472;2024-02-23T12:39:45;9.90;99.90
23715;DHT22;12036;50.858;4.472;2024-02-23T12:42:11;10.10;99.90
23715;DHT22;12036;50.858;4.472;2024-02-23T12:44:36;10.20;99.90
23715;DHT22;12036;50.858;4.472;2024-02-23T12:47:02;10.30;99.90
23715;DHT22;12036;50.858;4.472;2024-02-23T12:49:28;10.40;99.90
23715;DHT22;12036;50.858;4.472;2024-02-23T12:51:54;10.50;99.90
23715;DHT22;12036;50.858;4.472;2024-02-23T12:54:19;10.70;99.90
23715;DHT22;12036;50.858;4.472;2024-02-23T12:56:45;10.60;99.90
23715;DHT22;12036;50.858;4.472;2024-02-23T12:59:11;10.50;99.90
23715;DHT22;12036;50.858;4.472;2024-02-23T13:01:37;10.10;99.90
23715;DHT22;12036;50.858;4.472;2024-02-23T13:04:04;10.00;99.90
23715;DHT22;12036;50.858;4.472;2024-02-23T13:06:39;10.10;99.90
23715;DHT22;12036;50.858;4.472;2024-02-23T13:09:06;10.20;99.90
23715;DHT22;12036;50.858;4.472;2024-02-23T13:11:34;10.40;99.90
23715;DHT22;12036;50.858;4.472;2024-02-23T13:14:00;10.10;99.90
23715;DHT22;12036;50.858;4.472;2024-02-23T13:16:27;10.00;99.90
23715;DHT22;12036;50.858;4.472;2024-02-23T13:18:53;9.80;99.90
23715;DHT22;12036;50.858;4.472;2024-02-23T13:21:19;9.60;99.90
23715;DHT22;12036;50.858;4.472;2024-02-23T13:23:44;9.50;99.90
23715;DHT22;12036;50.858;4.472;2024-02-23T13:26:10;9.70;99.90
23715;DHT22;12036;50.858;4.472;2024-02-23T13:28:36;9.80;99.90
23715;DHT22;12036;50.858;4.472;2024-02-23T13:31:02;9.90;99.90
23715;DHT22;12036;50.858;4.472;2024-02-23T13:33:28;10.10;99.90
23715;DHT22;12036;50.858;4.472;2024-02-23T13:35:54;10.00;99.90
23715;DHT22;12036;50.858;4.472;2024-02-23T13:38:20;10.40;99.90
23715;DHT22;12036;50.858;4.472;2024-02-23T13:40:46;10.50;99.90
23715;DHT22;12036;50.858;4.472;2024-02-23T13:43:12;10.20;99.90
23715;DHT22;12036;50.858;4.472;2024-02-23T13:45:51;9.90;99.90
23715;DHT22;12036;50.858;4.472;2024-02-23T13:48:18;10.00;99.90
23715;DHT22;12036;50.858;4.472;2024-02-23T13:50:47;10.00;99.90
23715;DHT22;12036;50.858;4.472;2024-02-23T13:53:13;9.90;99.90
23715;DHT22;12036;50.858;4.472;2024-02-23T13:55:39;9.90;99.90
23715;DHT22;12036;50.858;4.472;2024-02-23T13:58:06;9.90;99.90
23715;DHT22;12036;50.858;4.472;2024-02-23T14:00:32;9.90;99.90
23715;DHT22;12036;50.858;4.472;2024-02-23T14:02:57;10.00;99.90
23715;DHT22;12036;50.858;4.472;2024-02-23T14:05:23;10.10;99.90
23715;DHT22;12036;50.858;4.472;2024-02-23T14:07:51;10.10;99.90
23715;DHT22;12036;50.858;4.472;2024-02-23T14:10:19;10.20;99.90
23715;DHT22;12036;50.858;4.472;2024-02-23T14:12:45;10.20;99.90
23715;DHT22;12036;50.858;4.472;2024-02-23T14:15:11;10.20;99.90
23715;DHT22;12036;50.858;4.472;2024-02-23T14:17:38;10.30;99.90
23715;DHT22;12036;50.858;4.472;2024-02-23T14:20:04;10.30;99.90
23715;DHT22;12036;50.858;4.472;2024-02-23T14:22:30;10.20;99.90
23715;DHT22;12036;50.858;4.472;2024-02-23T14:24:57;10.20;99.90
23715;DHT22;12036;50.858;4.472;2024-02-23T14:27:22;10.30;99.90
23715;DHT22;12036;50.858;4.472;2024-02-23T14:29:48;10.50;99.90
23715;DHT22;12036;50.858;4.472;2024-02-23T14:32:16;10.60;99.90
23715;DHT22;12036;50.858;4.472;2024-02-23T14:34:42;10.50;99.90
23715;DHT22;12036;50.858;4.472;2024-02-23T14:37:08;10.40;99.90
23715;DHT22;12036;50.858;4.472;2024-02-23T14:39:34;10.40;99.90
23715;DHT22;12036;50.858;4.472;2024-02-23T14:42:00;10.50;99.90
23715;DHT22;12036;50.858;4.472;2024-02-23T14:44:26;10.50;99.90
23715;DHT22;12036;50.858;4.472;2024-02-23T14:46:52;10.40;99.90
23715;DHT22;12036;50.858;4.472;2024-02-23T14:49:18;10.40;99.90
23715;DHT22;12036;50.858;4.472;2024-02-23T14:51:43;10.40;99.90
23715;DHT22;12036;50.858;4.472;2024-02-23T14:54:11;10.30;99.90
23715;DHT22;12036;50.858;4.472;2024-02-23T14:56:37;10.20;99.90
23715;DHT22;12036;50.858;4.472;2024-02-23T14:59:03;10.20;99.90
23715;DHT22;12036;50.858;4.472;2024-02-23T15:01:29;10.40;99.90
23715;DHT22;12036;50.858;4.472;2024-02-23T15:03:54;10.60;99.90
23715;DHT22;12036;50.858;4.472;2024-02-23T15:06:20;10.60;99.90
23715;DHT22;12036;50.858;4.472;2024-02-23T15:08:48;10.40;99.90
23715;DHT22;12036;50.858;4.472;2024-02-23T15:11:13;10.30;99.90
23715;DHT22;12036;50.858;4.472;2024-02-23T15:13:39;10.20;99.90
23715;DHT22;12036;50.858;4.472;2024-02-23T15:16:06;10.10;99.90
23715;DHT22;12036;50.858;4.472;2024-02-23T15:18:31;10.10;99.90
23715;DHT22;12036;50.858;4.472;2024-02-23T15:20:57;10.10;99.90
23715;DHT22;12036;50.858;4.472;2024-02-23T15:23:23;10.00;99.90
23715;DHT22;12036;50.858;4.472;2024-02-23T15:25:50;9.90;99.90
23715;DHT22;12036;50.858;4.472;2024-02-23T15:28:15;9.80;99.90
23715;DHT22;12036;50.858;4.472;2024-02-23T15:30:50;9.80;99.90
23715;DHT22;12036;50.858;4.472;2024-02-23T15:33:21;9.80;99.90
23715;DHT22;12036;50.858;4.472;2024-02-23T15:35:46;9.60;99.90
23715;DHT22;12036;50.858;4.472;2024-02-23T15:38:12;9.60;99.90